KLFI/LFI METAR and TAF weather

Enter ICAO airport designator
Station Type Date Time Source
KLFI METAR 2021/09/16 08:56 UTC NOAA

KLFI 160856Z 17003KT 10SM CLR 23/23 A3004 RMK AO2A SLP179 T02330233 57004 $


Station Type Date Time Source
KLFI Decoded METAR 2021/09/16 08:56 UTC NOAA

Langley Air Force Base, VA, United States (KLFI) 37-05N 076-21W 6M
Sep 16, 2021 - 04:56 AM EDT / 2021.09.16 0856 UTC
Wind: from the S (170 degrees) at 3 MPH (3 KT):0
Visibility: 10 mile(s):0
Sky conditions: clear
Temperature: 73.9 F (23.3 C)
Dew Point: 73.9 F (23.3 C)
Relative Humidity: 100%
Pressure (altimeter): 30.04 in. Hg (1017 hPa)
Pressure tendency: 0.01 inches (0.4 hPa) lower than three hours ago
ob: KLFI 160856Z 17003KT 10SM CLR 23/23 A3004 RMK AO2A SLP179 T02330233 57004
cycle: 9

Station Type Date Time Source
KLFI TAF 2021/09/16 09:03 UTC NOAA

TAF TAF KLFI 160900Z 1609/1715 23012KT 9999 SCT060 BKN090 QNH3002INS
BECMG 1614/1615 VRB06KT 9999 SCT015 BKN050 QNH3006INS
BECMG 1705/1706 03012KT 9000 SHRA BKN008 OVC010 QNH3008INS
TEMPO 1712/1715 03015G25KT 4800 -TSRA OVC005CB TX27/1618Z TN23/1610Z

Example: see airport list